sensor_id;sensor_type;location;lat;lon;timestamp;temperature;humidity
19174;DHT22;9719;49.322;8.536;2023-03-26T00:00:36;9.00;99.90
19174;DHT22;9719;49.322;8.536;2023-03-26T00:05:40;9.10;99.90
19174;DHT22;9719;49.322;8.536;2023-03-26T00:10:43;9.00;99.90
19174;DHT22;9719;49.322;8.536;2023-03-26T00:15:45;8.80;99.90
19174;DHT22;9719;49.322;8.536;2023-03-26T00:20:48;8.80;99.90
19174;DHT22;9719;49.322;8.536;2023-03-26T00:25:51;8.70;99.90
19174;DHT22;9719;49.322;8.536;2023-03-26T00:30:57;8.70;99.90
19174;DHT22;9719;49.322;8.536;2023-03-26T00:35:59;8.70;99.90
19174;DHT22;9719;49.322;8.536;2023-03-26T00:41:05;8.70;99.90
19174;DHT22;9719;49.322;8.536;2023-03-26T00:46:07;8.70;99.90
19174;DHT22;9719;49.322;8.536;2023-03-26T00:51:10;8.70;99.90
19174;DHT22;9719;49.322;8.536;2023-03-26T00:56:13;8.70;99.90
19174;DHT22;9719;49.322;8.536;2023-03-26T01:01:18;8.70;99.90
19174;DHT22;9719;49.322;8.536;2023-03-26T01:06:23;8.70;99.90
19174;DHT22;9719;49.322;8.536;2023-03-26T01:11:30;8.70;99.90
19174;DHT22;9719;49.322;8.536;2023-03-26T01:16:35;8.70;99.90
19174;DHT22;9719;49.322;8.536;2023-03-26T01:21:38;8.80;99.90
19174;DHT22;9719;49.322;8.536;2023-03-26T01:32:34;8.80;99.90
19174;DHT22;9719;49.322;8.536;2023-03-26T01:37:44;8.80;99.90
19174;DHT22;9719;49.322;8.536;2023-03-26T01:42:58;8.90;99.90
19174;DHT22;9719;49.322;8.536;2023-03-26T01:48:01;8.90;99.90
19174;DHT22;9719;49.322;8.536;2023-03-26T01:53:04;9.00;99.90
19174;DHT22;9719;49.322;8.536;2023-03-26T01:58:12;9.00;99.90
19174;DHT22;9719;49.322;8.536;2023-03-26T02:03:24;9.00;99.90
19174;DHT22;9719;49.322;8.536;2023-03-26T02:08:31;9.00;99.90
19174;DHT22;9719;49.322;8.536;2023-03-26T02:13:38;9.00;99.90
19174;DHT22;9719;49.322;8.536;2023-03-26T02:18:40;9.00;99.90
19174;DHT22;9719;49.322;8.536;2023-03-26T02:23:43;9.00;99.90
19174;DHT22;9719;49.322;8.536;2023-03-26T02:28:47;9.10;99.90
19174;DHT22;9719;49.322;8.536;2023-03-26T02:33:49;9.10;99.90
19174;DHT22;9719;49.322;8.536;2023-03-26T02:38:51;9.10;99.90
19174;DHT22;9719;49.322;8.536;2023-03-26T02:43:54;9.10;99.90
19174;DHT22;9719;49.322;8.536;2023-03-26T02:48:56;9.10;99.90
19174;DHT22;9719;49.322;8.536;2023-03-26T02:53:58;9.00;99.90
19174;DHT22;9719;49.322;8.536;2023-03-26T02:59:02;9.00;99.90
19174;DHT22;9719;49.322;8.536;2023-03-26T03:04:04;9.00;99.90
19174;DHT22;9719;49.322;8.536;2023-03-26T03:09:07;9.00;99.90
19174;DHT22;9719;49.322;8.536;2023-03-26T03:14:11;9.00;99.90
19174;DHT22;9719;49.322;8.536;2023-03-26T03:19:13;9.00;99.90
19174;DHT22;9719;49.322;8.536;2023-03-26T03:24:15;9.00;99.90
19174;DHT22;9719;49.322;8.536;2023-03-26T03:29:19;9.00;99.90
19174;DHT22;9719;49.322;8.536;2023-03-26T03:34:21;9.00;99.90
19174;DHT22;9719;49.322;8.536;2023-03-26T03:39:24;9.10;99.90
19174;DHT22;9719;49.322;8.536;2023-03-26T03:44:28;9.10;99.90
19174;DHT22;9719;49.322;8.536;2023-03-26T03:49:30;9.10;99.90
19174;DHT22;9719;49.322;8.536;2023-03-26T03:54:32;9.10;99.90
19174;DHT22;9719;49.322;8.536;2023-03-26T03:59:35;9.20;99.90
19174;DHT22;9719;49.322;8.536;2023-03-26T04:04:37;9.20;99.90
19174;DHT22;9719;49.322;8.536;2023-03-26T04:09:39;9.20;99.90
19174;DHT22;9719;49.322;8.536;2023-03-26T04:14:42;9.10;99.90
19174;DHT22;9719;49.322;8.536;2023-03-26T04:19:44;9.10;99.90
19174;DHT22;9719;49.322;8.536;2023-03-26T04:24:47;9.10;99.90
19174;DHT22;9719;49.322;8.536;2023-03-26T04:29:51;9.10;99.90
19174;DHT22;9719;49.322;8.536;2023-03-26T04:34:53;9.00;99.90
19174;DHT22;9719;49.322;8.536;2023-03-26T04:39:55;9.00;99.90
19174;DHT22;9719;49.322;8.536;2023-03-26T04:44:58;9.00;99.90
19174;DHT22;9719;49.322;8.536;2023-03-26T04:50:03;8.90;99.90
19174;DHT22;9719;49.322;8.536;2023-03-26T04:55:13;9.00;99.90
19174;DHT22;9719;49.322;8.536;2023-03-26T05:00:21;9.00;99.90
19174;DHT22;9719;49.322;8.536;2023-03-26T05:05:24;9.00;99.90
19174;DHT22;9719;49.322;8.536;2023-03-26T05:10:27;9.00;99.90
19174;DHT22;9719;49.322;8.536;2023-03-26T05:15:30;9.10;99.90
19174;DHT22;9719;49.322;8.536;2023-03-26T05:20:32;9.10;99.90
19174;DHT22;9719;49.322;8.536;2023-03-26T05:25:35;9.10;99.90
19174;DHT22;9719;49.322;8.536;2023-03-26T05:30:38;9.10;99.90
19174;DHT22;9719;49.322;8.536;2023-03-26T05:35:40;9.20;99.90
19174;DHT22;9719;49.322;8.536;2023-03-26T05:40:42;9.20;99.90
19174;DHT22;9719;49.322;8.536;2023-03-26T05:45:47;9.20;99.90
19174;DHT22;9719;49.322;8.536;2023-03-26T05:50:50;9.30;99.90
19174;DHT22;9719;49.322;8.536;2023-03-26T05:55:53;9.20;99.90
19174;DHT22;9719;49.322;8.536;2023-03-26T06:00:59;9.20;99.90
19174;DHT22;9719;49.322;8.536;2023-03-26T06:06:06;9.20;99.90
19174;DHT22;9719;49.322;8.536;2023-03-26T06:11:09;9.30;99.90
19174;DHT22;9719;49.322;8.536;2023-03-26T06:16:14;9.40;99.90
19174;DHT22;9719;49.322;8.536;2023-03-26T06:21:16;9.40;99.90
19174;DHT22;9719;49.322;8.536;2023-03-26T06:26:18;9.50;99.90
19174;DHT22;9719;49.322;8.536;2023-03-26T06:31:22;9.60;99.90
19174;DHT22;9719;49.322;8.536;2023-03-26T06:36:24;9.80;99.90
19174;DHT22;9719;49.322;8.536;2023-03-26T06:41:25;9.90;99.90
19174;DHT22;9719;49.322;8.536;2023-03-26T06:46:29;10.10;99.90
19174;DHT22;9719;49.322;8.536;2023-03-26T06:51:31;10.30;99.90
19174;DHT22;9719;49.322;8.536;2023-03-26T06:56:33;10.50;99.90
19174;DHT22;9719;49.322;8.536;2023-03-26T07:01:36;10.60;99.90
19174;DHT22;9719;49.322;8.536;2023-03-26T07:06:38;10.60;99.90
19174;DHT22;9719;49.322;8.536;2023-03-26T07:11:40;10.50;99.90
19174;DHT22;9719;49.322;8.536;2023-03-26T07:16:43;10.50;99.90
19174;DHT22;9719;49.322;8.536;2023-03-26T07:21:45;10.40;99.90
19174;DHT22;9719;49.322;8.536;2023-03-26T07:26:53;10.30;99.90
19174;DHT22;9719;49.322;8.536;2023-03-26T07:32:02;10.10;99.90
19174;DHT22;9719;49.322;8.536;2023-03-26T07:37:14;9.90;99.90
19174;DHT22;9719;49.322;8.536;2023-03-26T07:42:28;9.80;99.90
19174;DHT22;9719;49.322;8.536;2023-03-26T07:47:34;9.80;99.90
19174;DHT22;9719;49.322;8.536;2023-03-26T07:52:36;9.80;99.90
19174;DHT22;9719;49.322;8.536;2023-03-26T07:57:45;9.80;99.90
19174;DHT22;9719;49.322;8.536;2023-03-26T08:03:12;9.90;99.90
19174;DHT22;9719;49.322;8.536;2023-03-26T08:08:20;9.90;99.90
19174;DHT22;9719;49.322;8.536;2023-03-26T08:13:27;9.80;99.90
19174;DHT22;9719;49.322;8.536;2023-03-26T08:18:43;9.70;99.90
19174;DHT22;9719;49.322;8.536;2023-03-26T08:23:57;9.70;99.90
19174;DHT22;9719;49.322;8.536;2023-03-26T08:29:09;9.80;99.90
19174;DHT22;9719;49.322;8.536;2023-03-26T08:34:14;9.90;99.90
19174;DHT22;9719;49.322;8.536;2023-03-26T08:39:16;10.10;99.90
19174;DHT22;9719;49.322;8.536;2023-03-26T08:50:23;10.40;99.90
19174;DHT22;9719;49.322;8.536;2023-03-26T08:55:39;10.50;99.90
19174;DHT22;9719;49.322;8.536;2023-03-26T09:01:04;10.60;99.90
19174;DHT22;9719;49.322;8.536;2023-03-26T09:23:38;11.90;99.90
19174;DHT22;9719;49.322;8.536;2023-03-26T09:34:29;13.00;99.90
19174;DHT22;9719;49.322;8.536;2023-03-26T09:39:45;12.80;99.90
19174;DHT22;9719;49.322;8.536;2023-03-26T09:45:26;13.50;99.90
19174;DHT22;9719;49.322;8.536;2023-03-26T09:51:04;14.70;99.90
19174;DHT22;9719;49.322;8.536;2023-03-26T09:56:18;15.30;99.90
19174;DHT22;9719;49.322;8.536;2023-03-26T10:01:30;16.10;99.90
19174;DHT22;9719;49.322;8.536;2023-03-26T10:06:49;16.60;99.90
19174;DHT22;9719;49.322;8.536;2023-03-26T10:12:07;18.80;99.90
19174;DHT22;9719;49.322;8.536;2023-03-26T10:17:30;23.00;99.90
19174;DHT22;9719;49.322;8.536;2023-03-26T10:22:45;22.80;99.90
19174;DHT22;9719;49.322;8.536;2023-03-26T10:27:57;21.80;99.90
19174;DHT22;9719;49.322;8.536;2023-03-26T10:33:12;21.30;99.90
19174;DHT22;9719;49.322;8.536;2023-03-26T10:38:19;20.60;99.90
19174;DHT22;9719;49.322;8.536;2023-03-26T10:43:48;21.00;99.90
19174;DHT22;9719;49.322;8.536;2023-03-26T10:49:16;21.40;99.90
19174;DHT22;9719;49.322;8.536;2023-03-26T11:00:59;15.90;99.90
19174;DHT22;9719;49.322;8.536;2023-03-26T11:06:10;17.40;99.90
19174;DHT22;9719;49.322;8.536;2023-03-26T11:11:19;19.90;99.90
19174;DHT22;9719;49.322;8.536;2023-03-26T11:16:32;23.40;99.90
19174;DHT22;9719;49.322;8.536;2023-03-26T11:21:38;25.50;99.90
19174;DHT22;9719;49.322;8.536;2023-03-26T11:26:50;23.70;99.90
19174;DHT22;9719;49.322;8.536;2023-03-26T11:32:01;21.70;99.90
19174;DHT22;9719;49.322;8.536;2023-03-26T11:37:11;19.60;99.90
19174;DHT22;9719;49.322;8.536;2023-03-26T11:42:17;21.70;99.90
19174;DHT22;9719;49.322;8.536;2023-03-26T11:47:29;22.20;99.90
19174;DHT22;9719;49.322;8.536;2023-03-26T11:52:31;20.60;99.90
19174;DHT22;9719;49.322;8.536;2023-03-26T11:57:34;19.40;99.90
19174;DHT22;9719;49.322;8.536;2023-03-26T12:02:39;19.70;99.90
19174;DHT22;9719;49.322;8.536;2023-03-26T12:07:45;24.50;99.90
19174;DHT22;9719;49.322;8.536;2023-03-26T12:12:47;26.70;99.90
19174;DHT22;9719;49.322;8.536;2023-03-26T12:17:53;26.40;99.70
19174;DHT22;9719;49.322;8.536;2023-03-26T12:22:57;23.50;99.90
19174;DHT22;9719;49.322;8.536;2023-03-26T12:28:01;21.10;99.90
19174;DHT22;9719;49.322;8.536;2023-03-26T12:33:06;19.80;99.90
19174;DHT22;9719;49.322;8.536;2023-03-26T12:38:22;25.30;99.90
19174;DHT22;9719;49.322;8.536;2023-03-26T12:43:28;30.60;67.30
19174;DHT22;9719;49.322;8.536;2023-03-26T12:48:33;34.80;59.90
19174;DHT22;9719;49.322;8.536;2023-03-26T12:53:49;37.20;52.30
19174;DHT22;9719;49.322;8.536;2023-03-26T13:15:24;33.10;53.20
19174;DHT22;9719;49.322;8.536;2023-03-26T13:20:39;31.30;61.10
19174;DHT22;9719;49.322;8.536;2023-03-26T13:25:54;32.50;58.90
19174;DHT22;9719;49.322;8.536;2023-03-26T13:31:03;34.50;50.90
19174;DHT22;9719;49.322;8.536;2023-03-26T13:36:14;32.50;54.60
19174;DHT22;9719;49.322;8.536;2023-03-26T13:41:22;28.90;55.30
19174;DHT22;9719;49.322;8.536;2023-03-26T13:46:31;26.10;77.10
19174;DHT22;9719;49.322;8.536;2023-03-26T13:51:40;24.10;85.80
19174;DHT22;9719;49.322;8.536;2023-03-26T13:56:46;22.40;85.80
19174;DHT22;9719;49.322;8.536;2023-03-26T14:01:53;21.10;99.30
19174;DHT22;9719;49.322;8.536;2023-03-26T14:07:02;20.10;99.90
19174;DHT22;9719;49.322;8.536;2023-03-26T14:12:25;19.40;98.20
19174;DHT22;9719;49.322;8.536;2023-03-26T14:17:35;18.70;96.90
19174;DHT22;9719;49.322;8.536;2023-03-26T14:22:48;17.90;89.60
19174;DHT22;9719;49.322;8.536;2023-03-26T14:28:18;17.10;92.50
19174;DHT22;9719;49.322;8.536;2023-03-26T14:33:39;16.90;98.40
19174;DHT22;9719;49.322;8.536;2023-03-26T14:39:07;16.20;99.90
19174;DHT22;9719;49.322;8.536;2023-03-26T14:44:50;15.70;99.90
19174;DHT22;9719;49.322;8.536;2023-03-26T14:55:49;14.50;99.90
19174;DHT22;9719;49.322;8.536;2023-03-26T15:12:32;13.50;99.90
19174;DHT22;9719;49.322;8.536;2023-03-26T15:29:32;12.70;99.90
19174;DHT22;9719;49.322;8.536;2023-03-26T15:40:30;12.60;99.90
19174;DHT22;9719;49.322;8.536;2023-03-26T15:45:40;12.60;99.90
19174;DHT22;9719;49.322;8.536;2023-03-26T15:50:50;12.40;99.90
19174;DHT22;9719;49.322;8.536;2023-03-26T15:55:59;12.20;99.90
19174;DHT22;9719;49.322;8.536;2023-03-26T16:01:13;11.90;99.90
19174;DHT22;9719;49.322;8.536;2023-03-26T16:06:28;11.70;99.90
19174;DHT22;9719;49.322;8.536;2023-03-26T16:11:51;11.60;99.90
19174;DHT22;9719;49.322;8.536;2023-03-26T16:16:56;11.40;99.90
19174;DHT22;9719;49.322;8.536;2023-03-26T16:22:00;11.30;99.90
19174;DHT22;9719;49.322;8.536;2023-03-26T16:27:29;11.20;99.90
19174;DHT22;9719;49.322;8.536;2023-03-26T16:32:35;11.10;99.90
19174;DHT22;9719;49.322;8.536;2023-03-26T16:37:42;11.20;99.90
19174;DHT22;9719;49.322;8.536;2023-03-26T16:42:52;11.20;99.90
19174;DHT22;9719;49.322;8.536;2023-03-26T16:48:04;11.10;99.90
19174;DHT22;9719;49.322;8.536;2023-03-26T16:53:20;11.00;99.90
19174;DHT22;9719;49.322;8.536;2023-03-26T16:58:29;11.00;99.90
19174;DHT22;9719;49.322;8.536;2023-03-26T17:03:44;10.90;99.90
19174;DHT22;9719;49.322;8.536;2023-03-26T17:08:57;11.00;99.90
19174;DHT22;9719;49.322;8.536;2023-03-26T17:14:08;10.90;99.90
19174;DHT22;9719;49.322;8.536;2023-03-26T17:19:24;10.90;99.90
19174;DHT22;9719;49.322;8.536;2023-03-26T17:24:37;10.80;99.90
19174;DHT22;9719;49.322;8.536;2023-03-26T17:30:01;10.70;99.90
19174;DHT22;9719;49.322;8.536;2023-03-26T17:35:08;10.60;99.90
19174;DHT22;9719;49.322;8.536;2023-03-26T17:40:45;10.50;99.90
19174;DHT22;9719;49.322;8.536;2023-03-26T17:45:48;10.30;99.90
19174;DHT22;9719;49.322;8.536;2023-03-26T17:50:55;10.20;99.90
19174;DHT22;9719;49.322;8.536;2023-03-26T17:56:02;10.20;99.90
19174;DHT22;9719;49.322;8.536;2023-03-26T18:01:16;10.10;99.90
19174;DHT22;9719;49.322;8.536;2023-03-26T18:06:36;10.10;99.90
19174;DHT22;9719;49.322;8.536;2023-03-26T18:17:11;10.10;99.90
19174;DHT22;9719;49.322;8.536;2023-03-26T18:22:18;10.00;99.90
19174;DHT22;9719;49.322;8.536;2023-03-26T18:27:22;10.00;99.90
19174;DHT22;9719;49.322;8.536;2023-03-26T18:32:25;10.00;99.90
19174;DHT22;9719;49.322;8.536;2023-03-26T18:37:34;10.00;99.90
19174;DHT22;9719;49.322;8.536;2023-03-26T18:42:39;10.00;99.90
19174;DHT22;9719;49.322;8.536;2023-03-26T18:47:41;10.00;99.90
19174;DHT22;9719;49.322;8.536;2023-03-26T18:52:45;9.90;99.90
19174;DHT22;9719;49.322;8.536;2023-03-26T18:57:49;9.90;99.90
19174;DHT22;9719;49.322;8.536;2023-03-26T19:02:58;9.80;99.90
19174;DHT22;9719;49.322;8.536;2023-03-26T19:08:05;9.80;99.90
19174;DHT22;9719;49.322;8.536;2023-03-26T19:13:12;9.80;99.90
19174;DHT22;9719;49.322;8.536;2023-03-26T19:18:16;9.70;99.90
19174;DHT22;9719;49.322;8.536;2023-03-26T19:23:24;9.70;99.90
19174;DHT22;9719;49.322;8.536;2023-03-26T19:28:30;9.60;99.90
19174;DHT22;9719;49.322;8.536;2023-03-26T19:33:35;9.50;99.90
19174;DHT22;9719;49.322;8.536;2023-03-26T19:38:42;9.60;99.90
19174;DHT22;9719;49.322;8.536;2023-03-26T19:43:47;9.60;99.90
19174;DHT22;9719;49.322;8.536;2023-03-26T19:48:50;9.70;99.90
19174;DHT22;9719;49.322;8.536;2023-03-26T19:53:57;9.50;99.90
19174;DHT22;9719;49.322;8.536;2023-03-26T19:59:00;9.30;99.90
19174;DHT22;9719;49.322;8.536;2023-03-26T20:04:04;9.10;99.90
19174;DHT22;9719;49.322;8.536;2023-03-26T20:09:09;8.70;99.90
19174;DHT22;9719;49.322;8.536;2023-03-26T20:14:13;8.50;99.90
19174;DHT22;9719;49.322;8.536;2023-03-26T20:19:15;8.30;99.90
19174;DHT22;9719;49.322;8.536;2023-03-26T20:24:19;8.20;99.90
19174;DHT22;9719;49.322;8.536;2023-03-26T20:29:24;8.10;99.90
19174;DHT22;9719;49.322;8.536;2023-03-26T20:34:27;8.10;99.90
19174;DHT22;9719;49.322;8.536;2023-03-26T20:39:31;8.00;99.90
19174;DHT22;9719;49.322;8.536;2023-03-26T20:44:32;8.00;99.90
19174;DHT22;9719;49.322;8.536;2023-03-26T20:49:35;8.00;99.90
19174;DHT22;9719;49.322;8.536;2023-03-26T20:54:38;8.00;99.90
19174;DHT22;9719;49.322;8.536;2023-03-26T20:59:41;8.00;99.90
19174;DHT22;9719;49.322;8.536;2023-03-26T21:04:43;8.00;99.90
19174;DHT22;9719;49.322;8.536;2023-03-26T21:09:48;8.10;99.90
19174;DHT22;9719;49.322;8.536;2023-03-26T21:14:51;8.00;99.90
19174;DHT22;9719;49.322;8.536;2023-03-26T21:19:53;8.00;99.90
19174;DHT22;9719;49.322;8.536;2023-03-26T21:25:04;8.10;99.90
19174;DHT22;9719;49.322;8.536;2023-03-26T21:30:13;8.10;99.90
19174;DHT22;9719;49.322;8.536;2023-03-26T21:35:16;8.10;99.90
19174;DHT22;9719;49.322;8.536;2023-03-26T21:40:19;8.20;99.90
19174;DHT22;9719;49.322;8.536;2023-03-26T21:45:22;8.20;99.90
19174;DHT22;9719;49.322;8.536;2023-03-26T21:50:24;8.30;99.90
19174;DHT22;9719;49.322;8.536;2023-03-26T21:55:28;8.30;99.90
19174;DHT22;9719;49.322;8.536;2023-03-26T22:00:40;8.20;99.90
19174;DHT22;9719;49.322;8.536;2023-03-26T22:05:50;8.10;99.90
19174;DHT22;9719;49.322;8.536;2023-03-26T22:10:56;8.10;99.90
19174;DHT22;9719;49.322;8.536;2023-03-26T22:15:58;8.10;99.90
19174;DHT22;9719;49.322;8.536;2023-03-26T22:21:00;8.20;99.90
19174;DHT22;9719;49.322;8.536;2023-03-26T22:26:04;8.20;99.90
19174;DHT22;9719;49.322;8.536;2023-03-26T22:31:07;8.40;99.90
19174;DHT22;9719;49.322;8.536;2023-03-26T22:36:10;8.40;99.90
19174;DHT22;9719;49.322;8.536;2023-03-26T22:41:14;8.30;99.90
19174;DHT22;9719;49.322;8.536;2023-03-26T22:46:15;8.30;99.90
19174;DHT22;9719;49.322;8.536;2023-03-26T22:51:18;8.30;99.90
19174;DHT22;9719;49.322;8.536;2023-03-26T22:56:21;8.30;99.90
19174;DHT22;9719;49.322;8.536;2023-03-26T23:01:23;8.30;99.90
19174;DHT22;9719;49.322;8.536;2023-03-26T23:06:25;8.40;99.90
19174;DHT22;9719;49.322;8.536;2023-03-26T23:11:29;8.40;99.90
19174;DHT22;9719;49.322;8.536;2023-03-26T23:16:30;8.30;99.90
19174;DHT22;9719;49.322;8.536;2023-03-26T23:21:32;8.30;99.90
19174;DHT22;9719;49.322;8.536;2023-03-26T23:26:37;8.30;99.90
19174;DHT22;9719;49.322;8.536;2023-03-26T23:31:39;8.30;99.90
19174;DHT22;9719;49.322;8.536;2023-03-26T23:36:41;8.20;99.90
19174;DHT22;9719;49.322;8.536;2023-03-26T23:41:45;8.20;99.90
19174;DHT22;9719;49.322;8.536;2023-03-26T23:46:47;8.10;99.90
19174;DHT22;9719;49.322;8.536;2023-03-26T23:51:59;8.10;99.90
19174;DHT22;9719;49.322;8.536;2023-03-26T23:57:03;8.00;99.90
